Fugaku Maru — JH3428 — position and weather

sailwx.info

Track history (hours):
 
Tides and Currents Weather Stations Pressure Air Temp Water Temp Dewpoint Dewpoint Depression Visibility Wind Speed Wind Dir Waves Ship Positions

Fugaku Maru

Last reported at 2014-Sep-18 22:19 UTC. Time now 2014-Oct-01 00:01 UTC.
Position N 34°29' E 138°32'.
Warning: this ship's position is 12 days out of date.

Length 165 m; draft 7.2 m.

Type: Cargo ship. MMSI: 431200176.

Date/timePositionNaut miles runAvg speedWind from/ knotsBaromVisibWave heightAir tempDewpointWater temp
2014-Sep-18 22:19N 34°29' E 138°32'5720.0
2014-Sep-18 19:29N 34°42' E 139°38'1819.0
2014-Sep-18 18:33N 34°49' E 139°58'1918.6
2014-Sep-18 17:33N 34°58' E 140°18'1918.6
2014-Sep-18 16:33N 35°11' E 140°35'2120.7
2014-Sep-18 15:33N 35°28' E 140°49'2120.6
2014-Sep-18 14:32N 35°47' E 140°58'  
2014-Sep-15 22:32N 35°52' E 141°02'2319.9
2014-Sep-15 21:22N 35°30' E 140°52'2221.0
2014-Sep-15 20:19N 35°12' E 140°36'1821.6
2014-Sep-15 19:29N 34°59' E 140°21'2222.9
2014-Sep-15 18:30N 34°48' E 139°57'2 0.1
2014-Sep-14 19:11N 34°47' E 139°56'1219.1
2014-Sep-14 18:33N 34°53' E 140°09'1818.3
2014-Sep-14 17:33N 35°03' E 140°27'1919.2
2014-Sep-14 16:33N 35°19' E 140°41'2020.1
2014-Sep-14 15:33N 35°35' E 140°55'2019.9
2014-Sep-14 14:33N 35°54' E 141°02'2121.1
2014-Sep-14 13:33N 36°15' E 141°05'2121.2
2014-Sep-14 12:33N 36°36' E 141°12'2121.6
2014-Sep-14 11:34N 36°57' E 141°16'  
2014-Sep-12 01:29N 36°13' E 141°02'3819.5
2014-Sep-11 23:33N 35°35' E 140°55'2019.9
2014-Sep-11 22:33N 35°19' E 140°42'2221.5
2014-Sep-11 21:33N 35°02' E 140°25'2020.4
2014-Sep-11 20:33N 34°51' E 140°04'2120.1
2014-Sep-11 19:31N 34°42' E 139°41'2 0.1
2014-Sep-10 21:15N 34°41' E 139°39'1317.6
2014-Sep-10 20:31N 34°46' E 139°53'1718.0
2014-Sep-10 19:33N 34°55' E 140°11'1816.9
2014-Sep-10 18:29N 35°06' E 140°29'1717.8
2014-Sep-10 17:31N 35°20' E 140°42'2019.6
2014-Sep-10 16:29N 35°36' E 140°56'1819.0
2014-Sep-10 15:31N 35°53' E 141°03'1919.6
2014-Sep-10 14:33N 36°12' E 141°03'  
Track history (hours):
 
Tides and Currents Weather Stations Pressure Air Temp Water Temp Dewpoint Dewpoint Depression Visibility Wind Speed Wind Dir Waves Ship Positions

Fugaku Maru

Last reported at 2014-Sep-18 22:19 UTC. Time now 2014-Oct-01 00:01 UTC.
Position N 34°29' E 138°32'.
Warning: this ship's position is 12 days out of date.

Length 165 m; draft 7.2 m.

Type: Cargo ship. MMSI: 431200176.

Date/timePositionNaut miles runAvg speedWind from/ knotsBaromVisibWave heightAir tempDewpointWater temp
2014-Sep-18 22:19N 34°29' E 138°32'5720.0
2014-Sep-18 19:29N 34°42' E 139°38'1819.0
2014-Sep-18 18:33N 34°49' E 139°58'1918.6
2014-Sep-18 17:33N 34°58' E 140°18'1918.6
2014-Sep-18 16:33N 35°11' E 140°35'2120.7
2014-Sep-18 15:33N 35°28' E 140°49'2120.6
2014-Sep-18 14:32N 35°47' E 140°58'  
2014-Sep-15 22:32N 35°52' E 141°02'2319.9
2014-Sep-15 21:22N 35°30' E 140°52'2221.0
2014-Sep-15 20:19N 35°12' E 140°36'1821.6
2014-Sep-15 19:29N 34°59' E 140°21'2222.9
2014-Sep-15 18:30N 34°48' E 139°57'2 0.1
2014-Sep-14 19:11N 34°47' E 139°56'1219.1
2014-Sep-14 18:33N 34°53' E 140°09'1818.3
2014-Sep-14 17:33N 35°03' E 140°27'1919.2
2014-Sep-14 16:33N 35°19' E 140°41'2020.1
2014-Sep-14 15:33N 35°35' E 140°55'2019.9
2014-Sep-14 14:33N 35°54' E 141°02'2121.1
2014-Sep-14 13:33N 36°15' E 141°05'2121.2
2014-Sep-14 12:33N 36°36' E 141°12'2121.6
2014-Sep-14 11:34N 36°57' E 141°16'  
2014-Sep-12 01:29N 36°13' E 141°02'3819.5
2014-Sep-11 23:33N 35°35' E 140°55'2019.9
2014-Sep-11 22:33N 35°19' E 140°42'2221.5
2014-Sep-11 21:33N 35°02' E 140°25'2020.4
2014-Sep-11 20:33N 34°51' E 140°04'2120.1
2014-Sep-11 19:31N 34°42' E 139°41'2 0.1
2014-Sep-10 21:15N 34°41' E 139°39'1317.6
2014-Sep-10 20:31N 34°46' E 139°53'1718.0
2014-Sep-10 19:33N 34°55' E 140°11'1816.9
2014-Sep-10 18:29N 35°06' E 140°29'1717.8
2014-Sep-10 17:31N 35°20' E 140°42'2019.6
2014-Sep-10 16:29N 35°36' E 140°56'1819.0
2014-Sep-10 15:31N 35°53' E 141°03'1919.6
2014-Sep-10 14:33N 36°12' E 141°03'  

Dump ship's entire track history